Helena, MT

5:16 PM MDT on September 03, 2015 (GMT -0600)
Helena 2-North | | Change Station
CLOSE
Current Station
Personal Weather Station
Location: Helena, MT
Elevation: 3825 ft
Nearby Weather Stations

Elev 3825 ft 46.62 °N, 112.04 °W | Updated 5 minutes ago

Overcast
Overcast
59.0 °F
Feels Like 59.0 °F
N
0.0
Wind Variable Wind from WNW
Gusts 5.0 mph

Today
High -- | Low -- °F
--% Chance of Precip.
Yesterday
High -- | Low -- °F
Precip. -- in
6:50 AM 8:03 PM
Waning Gibbous, 66% visible
Pressure 29.90 in
Visibility 10.0 miles
Clouds Mostly Cloudy 7500 ft
Overcast 9000 ft
Dew Point 46 °F
Humidity 63%
Rainfall 0.00 in
Snow Depth Not available.
UV 1 out of 12
Pollen 7.40 out of 12
Air Quality Not available.
Flu Activity Not available.
METAR KHLN 032253Z 36006KT 10SM -RA BKN075 OVC090 15/07 A2990 RMK AO2 RAB47 SLP123 P0000 T01500067
Pressure 29.90 in
Visibility 10.0 miles
Clouds Mostly Cloudy 7500 ft
Overcast 9000 ft
Dew Point 46 °F
Humidity 63%
Rainfall 0.00 in
Snow Depth Not available.
UV 1 out of 12
Pollen 7.40 out of 12
Air Quality Not available.
Flu Activity Not available.
METAR KHLN 032253Z 36006KT 10SM -RA BKN075 OVC090 15/07 A2990 RMK AO2 RAB47 SLP123 P0000 T01500067

10-Day Weather Forecast

×

Almanac

Astronomy

Sep. 03, 2015 Rise Set
Actual Time
Civil Twilight
Nautical Twilight
Astronomical Twilight
Moon
Length of Visible Light
Length of Day
Tomorrow will be .
, % of the Moon is Illuminated

Today's Extremes

State Highs State Lows

Community

WunderPhotos

Upload Photos

1,852,060 photos uploaded!

WunderBlogs® & News

Nearby

Air Quality

  Air Quality AQ Index Pollutant
Not available.

Snow Depth

Station Depth Elevation

Earthquake Activity

City Distance Mag. Time & Date
Minimum magnitude displayed is 2.5.

Coastal Water Temperatures

Place Temperature

Stations

Nearby Weather Stations

Station Location Temp. Windchill Dew Point Humidity Wind Precip. Elev Updated Type